Shomei — JD2716 — position and weather

sailwx.info

Track history (hours):
 
Tides and Currents Weather Stations Pressure Air Temp Water Temp Dewpoint Dewpoint Depression Visibility Wind Speed Wind Dir Waves Ship Positions

Shomei

Last reported at 2017-Dec-17 22:59 UTC. Time now 2017-Dec-17 23:09 UTC.
Position N 34°49' E 136°47'.

Length 74 m; draft 3.5 m.

Type: Tanker. MMSI: 431000635.

Date/timePositionNaut miles runAvg speedWind from/ knotsBaromVisibWave heightAir tempDewpointWater temp
2017-Dec-17 22:59N 34°49' E 136°47'1 2.4
2017-Dec-17 22:25N 34°50' E 136°46'0 0.0
2017-Dec-17 21:55N 34°50' E 136°46'0 0.0
2017-Dec-17 21:25N 34°50' E 136°46'0 0.0
2017-Dec-17 20:58N 34°50' E 136°46'0 0.0
2017-Dec-17 20:28N 34°50' E 136°46'0 0.0
2017-Dec-17 19:58N 34°51' E 136°46'0 0.0
2017-Dec-17 19:28N 34°50' E 136°46'0 0.0
2017-Dec-17 18:58N 34°50' E 136°46'0 0.0
2017-Dec-17 18:28N 34°50' E 136°46'0 0.0
2017-Dec-17 17:55N 34°50' E 136°46'0 0.0
2017-Dec-17 17:28N 34°50' E 136°46'0 0.0
2017-Dec-17 16:55N 34°50' E 136°46'0 0.0
2017-Dec-17 16:25N 34°50' E 136°46'0 0.0
2017-Dec-17 15:58N 34°50' E 136°46'0 0.0
2017-Dec-17 15:13N 34°50' E 136°46'0 0.2
2017-Dec-17 14:55N 34°50' E 136°46'0 0.0
2017-Dec-17 14:25N 34°50' E 136°46'0 0.0
2017-Dec-17 13:55N 34°50' E 136°46'0 0.0
2017-Dec-17 13:28N 34°50' E 136°46'0 0.0
2017-Dec-17 12:58N 34°50' E 136°46'0 0.0
2017-Dec-17 12:28N 34°50' E 136°46'0 0.0
2017-Dec-17 11:55N 34°50' E 136°46'0 0.0
2017-Dec-17 11:25N 34°50' E 136°46'0 0.0
2017-Dec-17 10:55N 34°50' E 136°46'0 0.0
2017-Dec-17 10:25N 34°50' E 136°46'0 0.0
2017-Dec-17 09:55N 34°50' E 136°46'0 0.0
2017-Dec-17 09:25N 34°50' E 136°46'0 0.0
2017-Dec-17 08:55N 34°50' E 136°46'0 0.0
2017-Dec-17 08:25N 34°50' E 136°46'0 0.0
2017-Dec-17 07:55N 34°50' E 136°46'0 0.0
2017-Dec-17 07:25N 34°50' E 136°46'0 0.0
2017-Dec-17 06:55N 34°50' E 136°46'0 0.0
2017-Dec-17 06:28N 34°50' E 136°46'0 0.0
2017-Dec-17 05:55N 34°50' E 136°46'0 0.0
2017-Dec-17 05:25N 34°50' E 136°46'0 0.0
2017-Dec-17 04:55N 34°50' E 136°46'1 1.8
2017-Dec-17 04:29N 34°51' E 136°45'611.9
2017-Dec-17 04:00N 34°56' E 136°41'2 4.7
2017-Dec-17 03:29N 34°57' E 136°38'0 0.0
2017-Dec-17 02:11N 34°57' E 136°38'0 0.0
2017-Dec-17 01:59N 34°57' E 136°38'0 0.0
2017-Dec-17 01:20N 34°57' E 136°38'0 0.0
2017-Dec-17 00:56N 34°57' E 136°38'0 0.1
2017-Dec-17 00:30N 34°57' E 136°38'0 0.1
2017-Dec-17 00:00N 34°57' E 136°38'0 0.0
2017-Dec-16 23:30N 34°57' E 136°38'4 7.1
2017-Dec-16 23:00N 34°57' E 136°43'510.8
2017-Dec-16 22:30N 35°01' E 136°48'5 9.3
2017-Dec-16 22:00N 35°04' E 136°52'1 1.9
2017-Dec-16 21:29N 35°05' E 136°52'0 0.0
2017-Dec-16 20:59N 35°05' E 136°52'0 0.0
2017-Dec-16 20:30N 35°05' E 136°52'0 0.0
2017-Dec-16 19:59N 35°05' E 136°52'0 0.0
2017-Dec-16 19:29N 35°05' E 136°52'0 0.0
2017-Dec-16 18:59N 35°05' E 136°52'0 0.0
2017-Dec-16 18:29N 35°05' E 136°52'0 0.0
2017-Dec-16 17:59N 35°05' E 136°52'0 0.0
2017-Dec-16 17:29N 35°05' E 136°52'0 0.0
2017-Dec-16 16:59N 35°05' E 136°52'0 0.0
2017-Dec-16 16:29N 35°05' E 136°52'0 0.0
2017-Dec-16 15:53N 35°05' E 136°52'0 0.0
2017-Dec-16 15:29N 35°05' E 136°52'0 0.0
2017-Dec-16 14:59N 35°05' E 136°52'0 0.0
2017-Dec-16 14:29N 35°05' E 136°52'0 0.0
2017-Dec-16 13:59N 35°05' E 136°52'0 0.0
2017-Dec-16 13:29N 35°05' E 136°52'0 0.0
2017-Dec-16 12:59N 35°05' E 136°52'0 0.0
2017-Dec-16 12:29N 35°05' E 136°52'0 0.0
2017-Dec-16 11:59N 35°05' E 136°52'0 0.0
2017-Dec-16 11:29N 35°05' E 136°52'0 0.0
2017-Dec-16 10:59N 35°05' E 136°52'0 0.0
2017-Dec-16 10:29N 35°05' E 136°52'0 0.0
2017-Dec-16 09:59N 35°05' E 136°52'0 0.0
2017-Dec-16 09:29N 35°05' E 136°52'0 0.0
2017-Dec-16 08:56N 35°05' E 136°52'0 0.0
2017-Dec-16 08:26N 35°05' E 136°52'0 0.0
2017-Dec-16 07:59N 35°05' E 136°52'0 0.0
2017-Dec-16 07:29N 35°05' E 136°52'0 0.0
2017-Dec-16 06:59N 35°05' E 136°52'0 0.0
2017-Dec-16 06:29N 35°05' E 136°52'0 0.3
2017-Dec-16 06:01N 35°05' E 136°52'611.1
2017-Dec-16 05:30N 34°60' E 136°49'1 2.3
2017-Dec-16 05:00N 34°59' E 136°50'0 0.0
2017-Dec-16 04:30N 34°59' E 136°50'0 0.0
2017-Dec-16 04:00N 34°59' E 136°50'0 0.0
2017-Dec-16 03:27N 34°59' E 136°50'1 1.2
2017-Dec-16 03:00N 34°59' E 136°50'1 2.3
2017-Dec-16 02:29N 34°59' E 136°48'0 0.0
2017-Dec-16 01:56N 34°59' E 136°48'0 0.0
2017-Dec-16 01:29N 34°59' E 136°48'0 0.1
2017-Dec-16 00:59N 34°59' E 136°48'0 0.1
2017-Dec-16 00:29N 34°59' E 136°48'0 0.0
2017-Dec-15 23:59N 34°59' E 136°48'0 0.0
2017-Dec-15 23:29N 34°59' E 136°48'0 0.0
2017-Dec-15 22:59N 34°59' E 136°48'0 0.0
2017-Dec-15 22:26N 34°59' E 136°48'0 0.0
2017-Dec-15 21:59N 34°59' E 136°48'0 0.0
2017-Dec-15 21:29N 34°59' E 136°48'0 0.0
2017-Dec-15 20:59N 34°59' E 136°48'0 0.1
2017-Dec-15 20:29N 34°59' E 136°48'0 0.1
2017-Dec-15 19:59N 34°59' E 136°48'0 0.1
2017-Dec-15 19:29N 34°59' E 136°48'0 0.0
2017-Dec-15 18:59N 34°59' E 136°48'0 0.0
2017-Dec-15 18:29N 34°59' E 136°48'0 0.0
2017-Dec-15 17:59N 34°59' E 136°48'0 0.1
2017-Dec-15 17:31N 34°59' E 136°48'611.0
2017-Dec-15 17:00N 34°53' E 136°47'713.3
2017-Dec-15 16:30N 34°47' E 136°48'713.5
2017-Dec-15 16:00N 34°41' E 136°52'104 8.9
2017-Dec-15 04:21N 33°52' E 135°01'614.4
2017-Dec-15 03:57N 33°56' E 134°56'2114.1
2017-Dec-15 02:27N 34°13' E 134°40'2013.6
2017-Dec-15 00:57N 34°33' E 134°37'713.7
2017-Dec-15 00:27N 34°40' E 134°38'6 0.9
2017-Dec-14 18:07N 34°45' E 134°40'0 0.0
2017-Dec-14 17:55N 34°45' E 134°40'0 0.0
2017-Dec-14 17:25N 34°45' E 134°40'0 0.1
2017-Dec-14 16:49N 34°45' E 134°40'0 0.0
2017-Dec-14 16:19N 34°45' E 134°40'0 0.0
2017-Dec-14 15:49N 34°45' E 134°40'0 0.0
2017-Dec-14 14:55N 34°45' E 134°40'0 0.0
2017-Dec-14 14:25N 34°45' E 134°40'0 0.0
2017-Dec-14 13:55N 34°45' E 134°40'0 0.0
2017-Dec-14 13:25N 34°45' E 134°40'0 0.0
2017-Dec-14 12:55N 34°45' E 134°40'0 0.0
2017-Dec-14 12:07N 34°45' E 134°40'0 0.0
2017-Dec-14 11:55N 34°45' E 134°40'0 0.0
2017-Dec-14 11:25N 34°45' E 134°40'0 0.0
2017-Dec-14 07:37N 34°45' E 134°39'0 0.4
2017-Dec-14 07:30N 34°45' E 134°40'1 0.5
2017-Dec-14 04:34N 34°47' E 134°40'0 0.9
2017-Dec-14 04:30N 34°47' E 134°40'4 7.1
2017-Dec-14 04:00N 34°43' E 134°40'611.6
2017-Dec-14 03:31N 34°41' E 134°46'611.2
2017-Dec-14 03:01N 34°38' E 134°52'510.5
2017-Dec-14 02:30N 34°37' E 134°58'510.0
2017-Dec-14 02:01N 34°36' E 135°04'510.8
2017-Dec-14 01:31N 34°30' E 135°05'611.6
2017-Dec-14 01:01N 34°25' E 135°03'611.9
2017-Dec-14 00:30N 34°19' E 135°00'611.7
2017-Dec-14 00:00N 34°14' E 134°59'612.2
2017-Dec-13 23:30N 34°07' E 135°00'612.1
2017-Dec-13 22:59N 34°01' E 135°01'99 7.6
2017-Dec-13 09:52N 34°39' E 136°52'513.2
2017-Dec-13 09:30N 34°43' E 136°49'713.2
2017-Dec-13 09:01N 34°49' E 136°46'713.3
2017-Dec-13 08:31N 34°55' E 136°46'5 9.5
2017-Dec-13 08:00N 34°59' E 136°50'0 0.0
2017-Dec-13 07:28N 34°59' E 136°50'0 0.0
2017-Dec-13 06:58N 34°59' E 136°50'0 0.0
2017-Dec-13 06:28N 34°59' E 136°50'0 0.0
2017-Dec-13 05:58N 34°59' E 136°50'0 0.0
2017-Dec-13 05:25N 34°59' E 136°50'1 3.5
2017-Dec-13 05:00N 34°59' E 136°48'1 1.4
2017-Dec-13 04:25N 34°60' E 136°48'2 4.2
2017-Dec-13 04:01N 35°01' E 136°49'1 1.6
2017-Dec-13 03:30N 35°02' E 136°50'0 0.0
2017-Dec-13 03:00N 35°02' E 136°50'0 0.0
2017-Dec-13 02:30N 35°02' E 136°50'0 0.0
2017-Dec-13 02:00N 35°02' E 136°50'0 0.0
2017-Dec-13 01:30N 35°02' E 136°50'0 0.0
2017-Dec-13 01:00N 35°02' E 136°50'0 0.0
2017-Dec-13 00:30N 35°02' E 136°50'2 3.8
2017-Dec-13 00:00N 34°60' E 136°49'612.7
2017-Dec-12 23:31N 34°54' E 136°47'612.8
2017-Dec-12 23:00N 34°47' E 136°48'612.2
2017-Dec-12 22:31N 34°42' E 136°51'  
2017-Dec-09 17:44N 34°27' E 137°51'511.9
2017-Dec-09 17:18N 34°28' E 137°57'511.7
2017-Dec-09 16:51N 34°30' E 138°03'411.6
2017-Dec-09 16:29N 34°31' E 138°08'610.8
2017-Dec-09 15:56N 34°33' E 138°15'1111.0
2017-Dec-09 14:57N 34°34' E 138°28'510.5
2017-Dec-09 14:28N 34°35' E 138°34'12 9.8
2017-Dec-09 13:15N 34°35' E 138°49'5 9.6
2017-Dec-09 12:45N 34°36' E 138°54'3 9.7
2017-Dec-09 12:29N 34°36' E 138°57'612.6
2017-Dec-09 12:00N 34°41' E 139°02'1812.8
2017-Dec-09 10:36N 34°55' E 139°15'412.9
2017-Dec-09 10:17N 34°58' E 139°19'312.0
2017-Dec-09 10:00N 34°60' E 139°22'510.9
2017-Dec-09 09:31N 35°02' E 139°28'611.5
2017-Dec-09 09:00N 35°05' E 139°35'713.1
2017-Dec-09 08:30N 35°07' E 139°42'612.8
2017-Dec-09 08:00N 35°13' E 139°46'612.1
2017-Dec-09 07:30N 35°18' E 139°44'611.8
2017-Dec-09 07:00N 35°24' E 139°43'612.7
2017-Dec-09 06:30N 35°28' E 139°49'712.7
2017-Dec-09 05:58N 35°31' E 139°57'4 9.3
2017-Dec-09 05:30N 35°30' E 140°02'0 0.0
2017-Dec-09 04:07N 35°30' E 140°02'0 0.1
2017-Dec-09 04:00N 35°30' E 140°02'2 3.8
2017-Dec-09 03:30N 35°31' E 140°01'2 0.7
2017-Dec-09 00:10N 35°32' E 140°03'0 0.9
2017-Dec-09 00:00N 35°32' E 140°03'3 5.6
2017-Dec-08 23:30N 35°35' E 140°03'3 5.7
2017-Dec-08 22:57N 35°36' E 140°06'0 0.0
2017-Dec-08 22:27N 35°36' E 140°06'0 0.0
2017-Dec-08 22:00N 35°36' E 140°06'0 0.0
2017-Dec-08 21:27N 35°36' E 140°06'0 0.0
2017-Dec-08 20:57N 35°36' E 140°06'0 0.0
2017-Dec-08 20:27N 35°36' E 140°06'0 0.0
2017-Dec-08 19:45N 35°36' E 140°06'0 0.0
2017-Dec-08 19:27N 35°36' E 140°06'0 0.0
2017-Dec-08 18:57N 35°36' E 140°06'0 0.0
2017-Dec-08 18:27N 35°36' E 140°06'0 0.0
2017-Dec-08 17:57N 35°36' E 140°06'0 0.0
2017-Dec-08 17:30N 35°36' E 140°06'0 0.0
2017-Dec-08 16:51N 35°36' E 140°06'0 0.0
2017-Dec-08 16:27N 35°36' E 140°06'0 0.0
2017-Dec-08 16:00N 35°36' E 140°06'0 0.0
2017-Dec-08 15:30N 35°36' E 140°06'0 0.0
2017-Dec-08 15:00N 35°36' E 140°06'0 0.0
2017-Dec-08 14:30N 35°36' E 140°06'0 0.0
2017-Dec-08 14:00N 35°36' E 140°06'0 0.0
2017-Dec-08 13:30N 35°36' E 140°06'0 0.0
2017-Dec-08 13:00N 35°36' E 140°06'0 0.0
2017-Dec-08 12:30N 35°36' E 140°06'0 0.0
2017-Dec-08 11:57N 35°36' E 140°06'0 0.0
2017-Dec-08 11:27N 35°36' E 140°06'0 0.0
2017-Dec-08 10:57N 35°36' E 140°06'0 0.0
2017-Dec-08 10:30N 35°36' E 140°06'0 0.0
2017-Dec-08 09:57N 35°36' E 140°06'0 0.0
2017-Dec-08 09:27N 35°36' E 140°06'0 0.0
2017-Dec-08 08:57N 35°36' E 140°06'0 0.0
2017-Dec-08 08:30N 35°36' E 140°06'0 0.0
2017-Dec-08 07:57N 35°36' E 140°06'0 0.0
2017-Dec-08 07:30N 35°36' E 140°06'0 0.0
2017-Dec-08 06:57N 35°36' E 140°06'0 0.0
2017-Dec-08 06:30N 35°36' E 140°06'0 0.0
2017-Dec-08 06:00N 35°36' E 140°06'0 0.0
2017-Dec-08 05:30N 35°36' E 140°06'0 0.0
2017-Dec-08 04:57N 35°36' E 140°06'0 0.1
2017-Dec-08 04:31N 35°36' E 140°06'4 7.7
2017-Dec-08 04:00N 35°34' E 140°02'812.4
2017-Dec-08 03:21N 35°31' E 139°53'2 6.7
2017-Dec-08 02:59N 35°30' E 139°50'0 0.1
2017-Dec-08 02:29N 35°30' E 139°50'0 0.1
2017-Dec-08 01:59N 35°30' E 139°50'0 0.0
2017-Dec-08 01:17N 35°30' E 139°50'0 0.0
2017-Dec-08 00:59N 35°30' E 139°50'0 0.0
2017-Dec-08 00:29N 35°30' E 139°50'0 0.0
2017-Dec-07 23:53N 35°30' E 139°50'0 0.0
2017-Dec-07 23:29N 35°30' E 139°50'  
Track history (hours):
 
Tides and Currents Weather Stations Pressure Air Temp Water Temp Dewpoint Dewpoint Depression Visibility Wind Speed Wind Dir Waves Ship Positions

Shomei

Last reported at 2017-Dec-17 22:59 UTC. Time now 2017-Dec-17 23:09 UTC.
Position N 34°49' E 136°47'.

Length 74 m; draft 3.5 m.

Type: Tanker. MMSI: 431000635.

Date/timePositionNaut miles runAvg speedWind from/ knotsBaromVisibWave heightAir tempDewpointWater temp
2017-Dec-17 22:59N 34°49' E 136°47'1 2.4
2017-Dec-17 22:25N 34°50' E 136°46'0 0.0
2017-Dec-17 21:55N 34°50' E 136°46'0 0.0
2017-Dec-17 21:25N 34°50' E 136°46'0 0.0
2017-Dec-17 20:58N 34°50' E 136°46'0 0.0
2017-Dec-17 20:28N 34°50' E 136°46'0 0.0
2017-Dec-17 19:58N 34°51' E 136°46'0 0.0
2017-Dec-17 19:28N 34°50' E 136°46'0 0.0
2017-Dec-17 18:58N 34°50' E 136°46'0 0.0
2017-Dec-17 18:28N 34°50' E 136°46'0 0.0
2017-Dec-17 17:55N 34°50' E 136°46'0 0.0
2017-Dec-17 17:28N 34°50' E 136°46'0 0.0
2017-Dec-17 16:55N 34°50' E 136°46'0 0.0
2017-Dec-17 16:25N 34°50' E 136°46'0 0.0
2017-Dec-17 15:58N 34°50' E 136°46'0 0.0
2017-Dec-17 15:13N 34°50' E 136°46'0 0.2
2017-Dec-17 14:55N 34°50' E 136°46'0 0.0
2017-Dec-17 14:25N 34°50' E 136°46'0 0.0
2017-Dec-17 13:55N 34°50' E 136°46'0 0.0
2017-Dec-17 13:28N 34°50' E 136°46'0 0.0
2017-Dec-17 12:58N 34°50' E 136°46'0 0.0
2017-Dec-17 12:28N 34°50' E 136°46'0 0.0
2017-Dec-17 11:55N 34°50' E 136°46'0 0.0
2017-Dec-17 11:25N 34°50' E 136°46'0 0.0
2017-Dec-17 10:55N 34°50' E 136°46'0 0.0
2017-Dec-17 10:25N 34°50' E 136°46'0 0.0
2017-Dec-17 09:55N 34°50' E 136°46'0 0.0
2017-Dec-17 09:25N 34°50' E 136°46'0 0.0
2017-Dec-17 08:55N 34°50' E 136°46'0 0.0
2017-Dec-17 08:25N 34°50' E 136°46'0 0.0
2017-Dec-17 07:55N 34°50' E 136°46'0 0.0
2017-Dec-17 07:25N 34°50' E 136°46'0 0.0
2017-Dec-17 06:55N 34°50' E 136°46'0 0.0
2017-Dec-17 06:28N 34°50' E 136°46'0 0.0
2017-Dec-17 05:55N 34°50' E 136°46'0 0.0
2017-Dec-17 05:25N 34°50' E 136°46'0 0.0
2017-Dec-17 04:55N 34°50' E 136°46'1 1.8
2017-Dec-17 04:29N 34°51' E 136°45'611.9
2017-Dec-17 04:00N 34°56' E 136°41'2 4.7
2017-Dec-17 03:29N 34°57' E 136°38'0 0.0
2017-Dec-17 02:11N 34°57' E 136°38'0 0.0
2017-Dec-17 01:59N 34°57' E 136°38'0 0.0
2017-Dec-17 01:20N 34°57' E 136°38'0 0.0
2017-Dec-17 00:56N 34°57' E 136°38'0 0.1
2017-Dec-17 00:30N 34°57' E 136°38'0 0.1
2017-Dec-17 00:00N 34°57' E 136°38'0 0.0
2017-Dec-16 23:30N 34°57' E 136°38'4 7.1
2017-Dec-16 23:00N 34°57' E 136°43'510.8
2017-Dec-16 22:30N 35°01' E 136°48'5 9.3
2017-Dec-16 22:00N 35°04' E 136°52'1 1.9
2017-Dec-16 21:29N 35°05' E 136°52'0 0.0
2017-Dec-16 20:59N 35°05' E 136°52'0 0.0
2017-Dec-16 20:30N 35°05' E 136°52'0 0.0
2017-Dec-16 19:59N 35°05' E 136°52'0 0.0
2017-Dec-16 19:29N 35°05' E 136°52'0 0.0
2017-Dec-16 18:59N 35°05' E 136°52'0 0.0
2017-Dec-16 18:29N 35°05' E 136°52'0 0.0
2017-Dec-16 17:59N 35°05' E 136°52'0 0.0
2017-Dec-16 17:29N 35°05' E 136°52'0 0.0
2017-Dec-16 16:59N 35°05' E 136°52'0 0.0
2017-Dec-16 16:29N 35°05' E 136°52'0 0.0
2017-Dec-16 15:53N 35°05' E 136°52'0 0.0
2017-Dec-16 15:29N 35°05' E 136°52'0 0.0
2017-Dec-16 14:59N 35°05' E 136°52'0 0.0
2017-Dec-16 14:29N 35°05' E 136°52'0 0.0
2017-Dec-16 13:59N 35°05' E 136°52'0 0.0
2017-Dec-16 13:29N 35°05' E 136°52'0 0.0
2017-Dec-16 12:59N 35°05' E 136°52'0 0.0
2017-Dec-16 12:29N 35°05' E 136°52'0 0.0
2017-Dec-16 11:59N 35°05' E 136°52'0 0.0
2017-Dec-16 11:29N 35°05' E 136°52'0 0.0
2017-Dec-16 10:59N 35°05' E 136°52'0 0.0
2017-Dec-16 10:29N 35°05' E 136°52'0 0.0
2017-Dec-16 09:59N 35°05' E 136°52'0 0.0
2017-Dec-16 09:29N 35°05' E 136°52'0 0.0
2017-Dec-16 08:56N 35°05' E 136°52'0 0.0
2017-Dec-16 08:26N 35°05' E 136°52'0 0.0
2017-Dec-16 07:59N 35°05' E 136°52'0 0.0
2017-Dec-16 07:29N 35°05' E 136°52'0 0.0
2017-Dec-16 06:59N 35°05' E 136°52'0 0.0
2017-Dec-16 06:29N 35°05' E 136°52'0 0.3
2017-Dec-16 06:01N 35°05' E 136°52'611.1
2017-Dec-16 05:30N 34°60' E 136°49'1 2.3
2017-Dec-16 05:00N 34°59' E 136°50'0 0.0
2017-Dec-16 04:30N 34°59' E 136°50'0 0.0
2017-Dec-16 04:00N 34°59' E 136°50'0 0.0
2017-Dec-16 03:27N 34°59' E 136°50'1 1.2
2017-Dec-16 03:00N 34°59' E 136°50'1 2.3
2017-Dec-16 02:29N 34°59' E 136°48'0 0.0
2017-Dec-16 01:56N 34°59' E 136°48'0 0.0
2017-Dec-16 01:29N 34°59' E 136°48'0 0.1
2017-Dec-16 00:59N 34°59' E 136°48'0 0.1
2017-Dec-16 00:29N 34°59' E 136°48'0 0.0
2017-Dec-15 23:59N 34°59' E 136°48'0 0.0
2017-Dec-15 23:29N 34°59' E 136°48'0 0.0
2017-Dec-15 22:59N 34°59' E 136°48'0 0.0
2017-Dec-15 22:26N 34°59' E 136°48'0 0.0
2017-Dec-15 21:59N 34°59' E 136°48'0 0.0
2017-Dec-15 21:29N 34°59' E 136°48'0 0.0
2017-Dec-15 20:59N 34°59' E 136°48'0 0.1
2017-Dec-15 20:29N 34°59' E 136°48'0 0.1
2017-Dec-15 19:59N 34°59' E 136°48'0 0.1
2017-Dec-15 19:29N 34°59' E 136°48'0 0.0
2017-Dec-15 18:59N 34°59' E 136°48'0 0.0
2017-Dec-15 18:29N 34°59' E 136°48'0 0.0
2017-Dec-15 17:59N 34°59' E 136°48'0 0.1
2017-Dec-15 17:31N 34°59' E 136°48'611.0
2017-Dec-15 17:00N 34°53' E 136°47'713.3
2017-Dec-15 16:30N 34°47' E 136°48'713.5
2017-Dec-15 16:00N 34°41' E 136°52'104 8.9
2017-Dec-15 04:21N 33°52' E 135°01'614.4
2017-Dec-15 03:57N 33°56' E 134°56'2114.1
2017-Dec-15 02:27N 34°13' E 134°40'2013.6
2017-Dec-15 00:57N 34°33' E 134°37'713.7
2017-Dec-15 00:27N 34°40' E 134°38'6 0.9
2017-Dec-14 18:07N 34°45' E 134°40'0 0.0
2017-Dec-14 17:55N 34°45' E 134°40'0 0.0
2017-Dec-14 17:25N 34°45' E 134°40'0 0.1
2017-Dec-14 16:49N 34°45' E 134°40'0 0.0
2017-Dec-14 16:19N 34°45' E 134°40'0 0.0
2017-Dec-14 15:49N 34°45' E 134°40'0 0.0
2017-Dec-14 14:55N 34°45' E 134°40'0 0.0
2017-Dec-14 14:25N 34°45' E 134°40'0 0.0
2017-Dec-14 13:55N 34°45' E 134°40'0 0.0
2017-Dec-14 13:25N 34°45' E 134°40'0 0.0
2017-Dec-14 12:55N 34°45' E 134°40'0 0.0
2017-Dec-14 12:07N 34°45' E 134°40'0 0.0
2017-Dec-14 11:55N 34°45' E 134°40'0 0.0
2017-Dec-14 11:25N 34°45' E 134°40'0 0.0
2017-Dec-14 07:37N 34°45' E 134°39'0 0.4
2017-Dec-14 07:30N 34°45' E 134°40'1 0.5
2017-Dec-14 04:34N 34°47' E 134°40'0 0.9
2017-Dec-14 04:30N 34°47' E 134°40'4 7.1
2017-Dec-14 04:00N 34°43' E 134°40'611.6
2017-Dec-14 03:31N 34°41' E 134°46'611.2
2017-Dec-14 03:01N 34°38' E 134°52'510.5
2017-Dec-14 02:30N 34°37' E 134°58'510.0
2017-Dec-14 02:01N 34°36' E 135°04'510.8
2017-Dec-14 01:31N 34°30' E 135°05'611.6
2017-Dec-14 01:01N 34°25' E 135°03'611.9
2017-Dec-14 00:30N 34°19' E 135°00'611.7
2017-Dec-14 00:00N 34°14' E 134°59'612.2
2017-Dec-13 23:30N 34°07' E 135°00'612.1
2017-Dec-13 22:59N 34°01' E 135°01'99 7.6
2017-Dec-13 09:52N 34°39' E 136°52'513.2
2017-Dec-13 09:30N 34°43' E 136°49'713.2
2017-Dec-13 09:01N 34°49' E 136°46'713.3
2017-Dec-13 08:31N 34°55' E 136°46'5 9.5
2017-Dec-13 08:00N 34°59' E 136°50'0 0.0
2017-Dec-13 07:28N 34°59' E 136°50'0 0.0
2017-Dec-13 06:58N 34°59' E 136°50'0 0.0
2017-Dec-13 06:28N 34°59' E 136°50'0 0.0
2017-Dec-13 05:58N 34°59' E 136°50'0 0.0
2017-Dec-13 05:25N 34°59' E 136°50'1 3.5
2017-Dec-13 05:00N 34°59' E 136°48'1 1.4
2017-Dec-13 04:25N 34°60' E 136°48'2 4.2
2017-Dec-13 04:01N 35°01' E 136°49'1 1.6
2017-Dec-13 03:30N 35°02' E 136°50'0 0.0
2017-Dec-13 03:00N 35°02' E 136°50'0 0.0
2017-Dec-13 02:30N 35°02' E 136°50'0 0.0
2017-Dec-13 02:00N 35°02' E 136°50'0 0.0
2017-Dec-13 01:30N 35°02' E 136°50'0 0.0
2017-Dec-13 01:00N 35°02' E 136°50'0 0.0
2017-Dec-13 00:30N 35°02' E 136°50'2 3.8
2017-Dec-13 00:00N 34°60' E 136°49'612.7
2017-Dec-12 23:31N 34°54' E 136°47'612.8
2017-Dec-12 23:00N 34°47' E 136°48'612.2
2017-Dec-12 22:31N 34°42' E 136°51'  
2017-Dec-09 17:44N 34°27' E 137°51'511.9
2017-Dec-09 17:18N 34°28' E 137°57'511.7
2017-Dec-09 16:51N 34°30' E 138°03'411.6
2017-Dec-09 16:29N 34°31' E 138°08'610.8
2017-Dec-09 15:56N 34°33' E 138°15'1111.0
2017-Dec-09 14:57N 34°34' E 138°28'510.5
2017-Dec-09 14:28N 34°35' E 138°34'12 9.8
2017-Dec-09 13:15N 34°35' E 138°49'5 9.6
2017-Dec-09 12:45N 34°36' E 138°54'3 9.7
2017-Dec-09 12:29N 34°36' E 138°57'612.6
2017-Dec-09 12:00N 34°41' E 139°02'1812.8
2017-Dec-09 10:36N 34°55' E 139°15'412.9
2017-Dec-09 10:17N 34°58' E 139°19'312.0
2017-Dec-09 10:00N 34°60' E 139°22'510.9
2017-Dec-09 09:31N 35°02' E 139°28'611.5
2017-Dec-09 09:00N 35°05' E 139°35'713.1
2017-Dec-09 08:30N 35°07' E 139°42'612.8
2017-Dec-09 08:00N 35°13' E 139°46'612.1
2017-Dec-09 07:30N 35°18' E 139°44'611.8
2017-Dec-09 07:00N 35°24' E 139°43'612.7
2017-Dec-09 06:30N 35°28' E 139°49'712.7
2017-Dec-09 05:58N 35°31' E 139°57'4 9.3
2017-Dec-09 05:30N 35°30' E 140°02'0 0.0
2017-Dec-09 04:07N 35°30' E 140°02'0 0.1
2017-Dec-09 04:00N 35°30' E 140°02'2 3.8
2017-Dec-09 03:30N 35°31' E 140°01'2 0.7
2017-Dec-09 00:10N 35°32' E 140°03'0 0.9
2017-Dec-09 00:00N 35°32' E 140°03'3 5.6
2017-Dec-08 23:30N 35°35' E 140°03'3 5.7
2017-Dec-08 22:57N 35°36' E 140°06'0 0.0
2017-Dec-08 22:27N 35°36' E 140°06'0 0.0
2017-Dec-08 22:00N 35°36' E 140°06'0 0.0
2017-Dec-08 21:27N 35°36' E 140°06'0 0.0
2017-Dec-08 20:57N 35°36' E 140°06'0 0.0
2017-Dec-08 20:27N 35°36' E 140°06'0 0.0
2017-Dec-08 19:45N 35°36' E 140°06'0 0.0
2017-Dec-08 19:27N 35°36' E 140°06'0 0.0
2017-Dec-08 18:57N 35°36' E 140°06'0 0.0
2017-Dec-08 18:27N 35°36' E 140°06'0 0.0
2017-Dec-08 17:57N 35°36' E 140°06'0 0.0
2017-Dec-08 17:30N 35°36' E 140°06'0 0.0
2017-Dec-08 16:51N 35°36' E 140°06'0 0.0
2017-Dec-08 16:27N 35°36' E 140°06'0 0.0
2017-Dec-08 16:00N 35°36' E 140°06'0 0.0
2017-Dec-08 15:30N 35°36' E 140°06'0 0.0
2017-Dec-08 15:00N 35°36' E 140°06'0 0.0
2017-Dec-08 14:30N 35°36' E 140°06'0 0.0
2017-Dec-08 14:00N 35°36' E 140°06'0 0.0
2017-Dec-08 13:30N 35°36' E 140°06'0 0.0
2017-Dec-08 13:00N 35°36' E 140°06'0 0.0
2017-Dec-08 12:30N 35°36' E 140°06'0 0.0
2017-Dec-08 11:57N 35°36' E 140°06'0 0.0
2017-Dec-08 11:27N 35°36' E 140°06'0 0.0
2017-Dec-08 10:57N 35°36' E 140°06'0 0.0
2017-Dec-08 10:30N 35°36' E 140°06'0 0.0
2017-Dec-08 09:57N 35°36' E 140°06'0 0.0
2017-Dec-08 09:27N 35°36' E 140°06'0 0.0
2017-Dec-08 08:57N 35°36' E 140°06'0 0.0
2017-Dec-08 08:30N 35°36' E 140°06'0 0.0
2017-Dec-08 07:57N 35°36' E 140°06'0 0.0
2017-Dec-08 07:30N 35°36' E 140°06'0 0.0
2017-Dec-08 06:57N 35°36' E 140°06'0 0.0
2017-Dec-08 06:30N 35°36' E 140°06'0 0.0
2017-Dec-08 06:00N 35°36' E 140°06'0 0.0
2017-Dec-08 05:30N 35°36' E 140°06'0 0.0
2017-Dec-08 04:57N 35°36' E 140°06'0 0.1
2017-Dec-08 04:31N 35°36' E 140°06'4 7.7
2017-Dec-08 04:00N 35°34' E 140°02'812.4
2017-Dec-08 03:21N 35°31' E 139°53'2 6.7
2017-Dec-08 02:59N 35°30' E 139°50'0 0.1
2017-Dec-08 02:29N 35°30' E 139°50'0 0.1
2017-Dec-08 01:59N 35°30' E 139°50'0 0.0
2017-Dec-08 01:17N 35°30' E 139°50'0 0.0
2017-Dec-08 00:59N 35°30' E 139°50'0 0.0
2017-Dec-08 00:29N 35°30' E 139°50'0 0.0
2017-Dec-07 23:53N 35°30' E 139°50'0 0.0
2017-Dec-07 23:29N 35°30' E 139°50'  

Dump ship's entire track history